createdAt,value
2022-12-12T00:02:42.971Z,43.33
2022-12-12T00:07:44.840Z,37.00
2022-12-12T00:12:46.705Z,38.55
2022-12-12T00:17:48.396Z,39.38
2022-12-12T00:22:50.122Z,45.42
2022-12-12T00:27:51.750Z,44.10
2022-12-12T00:32:53.378Z,45.90
2022-12-12T00:37:54.978Z,49.90
2022-12-12T00:42:56.593Z,51.78
2022-12-12T00:47:58.217Z,46.80
2022-12-12T00:52:59.870Z,50.40
2022-12-12T00:58:01.561Z,41.05
2022-12-12T01:03:03.453Z,49.03
2022-12-12T01:08:05.390Z,50.03
2022-12-12T01:13:07.221Z,40.33
2022-12-12T01:18:09.132Z,42.88
2022-12-12T01:23:11.196Z,44.97
2022-12-12T01:28:13.152Z,44.22
2022-12-12T01:33:14.800Z,46.75
2022-12-12T01:38:16.470Z,38.85
2022-12-12T01:43:19.822Z,45.00
2022-12-12T01:48:23.596Z,41.25
2022-12-12T01:53:27.032Z,43.05
2022-12-12T01:58:30.553Z,47.70
2022-12-12T02:03:32.795Z,48.20
2022-12-12T02:08:35.030Z,49.97
2022-12-12T02:13:37.096Z,50.78
2022-12-12T02:19:06.752Z,47.28
2022-12-12T02:24:26.225Z,46.83
2022-12-12T02:29:36.657Z,43.28
2022-12-12T02:34:51.358Z,46.63
2022-12-12T02:40:01.887Z,53.67
2022-12-12T02:45:14.925Z,42.70
2022-12-12T02:50:22.203Z,44.30
2022-12-12T02:55:23.890Z,44.78
2022-12-12T03:00:25.780Z,52.13
2022-12-12T03:06:02.585Z,54.78
2022-12-12T03:11:16.317Z,50.55
2022-12-12T03:16:38.529Z,53.72
2022-12-12T03:21:56.771Z,47.03
2022-12-12T03:27:13.485Z,48.22
2022-12-12T03:32:25.333Z,48.22
2022-12-12T03:37:33.757Z,40.65
2022-12-12T03:42:37.964Z,46.90
2022-12-12T03:47:51.728Z,39.72
2022-12-12T03:53:00.252Z,38.50
2022-12-12T03:58:14.480Z,41.58
2022-12-12T04:03:57.901Z,47.78
2022-12-12T04:09:27.032Z,41.55
2022-12-12T04:14:55.461Z,36.70
2022-12-12T04:20:22.584Z,41.30
2022-12-12T04:30:36.126Z,36.35
2022-12-12T04:35:53.601Z,40.13
2022-12-12T04:40:59.422Z,38.35
2022-12-12T04:46:09.863Z,38.28
2022-12-12T04:51:16.644Z,33.40
2022-12-12T04:56:24.752Z,48.58
2022-12-12T05:01:35.129Z,38.90
2022-12-12T05:06:46.072Z,41.95
2022-12-12T05:11:48.778Z,34.60
2022-12-12T05:16:55.676Z,39.22
2022-12-12T05:21:57.326Z,35.88
2022-12-12T05:26:59.314Z,38.28
2022-12-12T05:32:01.160Z,35.33
2022-12-12T05:37:02.856Z,41.28
2022-12-12T05:42:04.646Z,30.85
2022-12-12T05:47:07.101Z,40.10
2022-12-12T05:52:08.798Z,37.92
2022-12-12T05:57:10.661Z,32.78
2022-12-12T06:02:13.384Z,35.15
2022-12-12T06:07:15.080Z,35.38
2022-12-12T06:12:16.779Z,38.58
2022-12-12T06:17:18.392Z,38.75
2022-12-12T06:22:20.001Z,43.13
2022-12-12T06:27:21.766Z,43.63
2022-12-12T06:32:23.511Z,43.60
2022-12-12T06:37:25.237Z,40.05
2022-12-12T06:42:27.016Z,48.38
2022-12-12T06:47:28.926Z,48.47
2022-12-12T06:52:31.223Z,37.83
2022-12-12T06:57:32.900Z,53.05
2022-12-12T07:02:34.680Z,46.83
2022-12-12T07:07:36.398Z,36.63
2022-12-12T07:12:38.067Z,40.47
2022-12-12T07:17:40.584Z,45.28
2022-12-12T07:22:42.983Z,44.40
2022-12-12T07:27:44.650Z,36.45
2022-12-12T07:32:46.277Z,36.38
2022-12-12T07:37:48.039Z,34.78
2022-12-12T07:42:50.088Z,36.65
2022-12-12T07:47:52.526Z,33.15
2022-12-12T07:52:55.440Z,33.22
2022-12-12T07:57:57.595Z,22.80
2022-12-12T08:02:59.262Z,32.92
2022-12-12T08:08:01.170Z,27.25
2022-12-12T08:13:10.926Z,24.95
2022-12-12T08:18:13.280Z,27.70
2022-12-12T08:23:14.995Z,22.88
2022-12-12T08:28:16.870Z,21.65
2022-12-12T08:33:23.141Z,21.30
2022-12-12T08:38:27.212Z,22.40
2022-12-12T08:43:29.185Z,21.65
2022-12-12T08:48:31.129Z,19.08
2022-12-12T08:53:32.930Z,24.30
2022-12-12T08:58:37.236Z,22.70
2022-12-12T09:03:39.012Z,21.23
2022-12-12T09:08:41.461Z,18.42
2022-12-12T09:13:43.980Z,19.45
2022-12-12T09:18:48.981Z,18.60
2022-12-12T09:23:51.000Z,22.35
2022-12-12T09:28:52.795Z,21.02
2022-12-12T09:33:54.421Z,19.45
2022-12-12T09:38:56.271Z,17.38
2022-12-12T09:44:03.604Z,19.55
2022-12-12T09:49:20.629Z,20.15
2022-12-12T09:54:25.879Z,19.55
2022-12-12T09:59:36.782Z,23.67
2022-12-12T10:04:50.821Z,25.33
2022-12-12T10:10:19.708Z,24.92
2022-12-12T10:15:32.817Z,25.55
2022-12-12T10:20:45.501Z,22.42
2022-12-12T10:25:54.473Z,27.63
2022-12-12T10:31:05.370Z,25.95
2022-12-12T10:36:42.334Z,27.77
2022-12-12T10:46:58.005Z,33.00
2022-12-12T10:52:04.621Z,22.67
2022-12-12T10:57:20.660Z,21.80
2022-12-12T11:02:39.185Z,24.30
2022-12-12T11:07:44.282Z,29.23
2022-12-12T11:12:46.112Z,30.00
2022-12-12T11:17:50.065Z,21.63
2022-12-12T11:22:55.003Z,29.80
2022-12-12T11:28:06.332Z,26.23
2022-12-12T11:33:19.163Z,31.00
2022-12-12T11:38:26.603Z,29.98
2022-12-12T11:43:35.815Z,35.53
2022-12-12T11:48:57.789Z,31.35
2022-12-12T11:54:01.011Z,27.25
2022-12-12T11:59:33.752Z,29.05
2022-12-12T12:05:15.879Z,29.23
2022-12-12T12:10:49.647Z,33.55
2022-12-12T12:16:23.960Z,27.20
2022-12-12T12:21:29.684Z,35.60
2022-12-12T12:26:54.290Z,33.40
2022-12-12T12:32:22.717Z,30.45
2022-12-12T12:37:43.257Z,33.33
2022-12-12T12:43:13.060Z,27.23
2022-12-12T12:48:39.434Z,30.80
2022-12-12T12:53:51.564Z,27.67
2022-12-12T12:58:56.755Z,27.20
2022-12-12T13:04:05.646Z,31.70
2022-12-12T13:09:16.332Z,29.17
2022-12-12T13:14:43.254Z,23.70
2022-12-12T13:19:49.812Z,26.20
2022-12-12T13:25:27.073Z,26.33
2022-12-12T13:30:43.908Z,27.25
2022-12-12T13:35:54.508Z,33.35
2022-12-12T13:40:59.263Z,21.77
2022-12-12T13:46:24.696Z,19.63
2022-12-12T13:51:33.489Z,26.00
2022-12-12T13:57:06.315Z,19.75
2022-12-12T14:02:41.482Z,18.88
2022-12-12T14:07:52.802Z,23.77
2022-12-12T14:12:55.355Z,27.13
2022-12-12T14:18:02.652Z,24.40
2022-12-12T14:23:22.374Z,16.98
2022-12-12T14:28:25.448Z,24.33
2022-12-12T14:34:12.993Z,23.88
2022-12-12T14:39:35.708Z,19.05
2022-12-12T14:44:47.905Z,18.17
2022-12-12T14:50:09.262Z,18.48
2022-12-12T14:55:15.982Z,19.42
2022-12-12T15:00:19.411Z,105.78
2022-12-12T15:05:21.131Z,16.52
2022-12-12T15:10:29.241Z,16.02
2022-12-12T15:15:33.633Z,20.05
2022-12-12T15:20:35.779Z,20.58
2022-12-12T15:25:47.930Z,27.50
2022-12-12T15:30:53.370Z,32.85
2022-12-12T15:36:02.205Z,26.73
2022-12-12T15:41:12.697Z,24.58
2022-12-12T15:46:15.935Z,31.23
2022-12-12T15:51:24.745Z,32.80
2022-12-12T15:56:31.563Z,29.58
2022-12-12T16:01:33.368Z,45.37
2022-12-12T16:06:40.026Z,39.17
2022-12-12T16:11:48.745Z,58.97
2022-12-12T16:17:05.562Z,88.60
2022-12-12T16:22:43.490Z,78.38
2022-12-12T16:27:46.954Z,77.93
2022-12-12T16:32:48.706Z,36.47
2022-12-12T16:37:52.560Z,68.13
2022-12-12T16:43:06.177Z,47.03
2022-12-12T16:48:31.776Z,46.63
2022-12-12T16:53:34.183Z,72.05
2022-12-12T16:58:36.456Z,42.70
2022-12-12T17:03:38.279Z,40.58
2022-12-12T17:08:40.024Z,44.83
2022-12-12T17:13:47.958Z,44.95
2022-12-12T17:18:49.644Z,33.67
2022-12-12T17:23:51.339Z,29.70
2022-12-12T17:28:53.098Z,31.58
2022-12-12T17:33:55.355Z,44.58
2022-12-12T17:38:57.034Z,62.33
2022-12-12T17:43:58.967Z,24.85
2022-12-12T17:49:02.026Z,22.70
2022-12-12T17:54:03.926Z,30.20
2022-12-12T17:59:08.359Z,43.72
2022-12-12T18:04:11.576Z,55.47
2022-12-12T18:09:14.506Z,39.20
2022-12-12T18:14:18.616Z,46.25
2022-12-12T18:19:22.065Z,43.65
2022-12-12T18:24:25.181Z,42.33
2022-12-12T18:29:27.313Z,46.33
2022-12-12T18:34:29.060Z,44.05
2022-12-12T18:39:30.693Z,30.88
2022-12-12T18:44:32.444Z,46.00
2022-12-12T18:49:34.153Z,39.72
2022-12-12T18:54:36.115Z,51.60
2022-12-12T18:59:37.841Z,48.22
2022-12-12T19:04:39.662Z,40.38
2022-12-12T19:09:41.576Z,46.22
2022-12-12T19:15:15.087Z,38.10
2022-12-12T19:20:05.494Z,39.08
2022-12-12T19:25:09.808Z,59.90
2022-12-12T19:30:13.948Z,51.75
2022-12-12T19:35:16.663Z,76.43
2022-12-12T19:40:18.994Z,46.30
2022-12-12T19:45:20.776Z,88.10
2022-12-12T19:50:22.425Z,47.83
2022-12-12T19:55:24.722Z,36.53
2022-12-12T20:00:26.706Z,43.38
2022-12-12T20:05:28.662Z,39.78
2022-12-12T20:10:30.393Z,34.72
2022-12-12T20:15:32.245Z,36.92
2022-12-12T20:20:34.043Z,40.55
2022-12-12T20:25:40.311Z,39.10
2022-12-12T20:30:42.017Z,41.22
2022-12-12T20:35:43.760Z,28.35
2022-12-12T20:40:45.455Z,30.60
2022-12-12T20:45:47.232Z,35.47
2022-12-12T20:50:49.432Z,30.30
2022-12-12T20:55:51.234Z,32.70
2022-12-12T21:00:52.957Z,28.45
2022-12-12T21:05:54.632Z,29.70
2022-12-12T21:10:56.305Z,27.90
2022-12-12T21:15:59.238Z,25.10
2022-12-12T21:21:01.123Z,33.80
2022-12-12T21:26:08.425Z,26.88
2022-12-12T21:36:16.010Z,31.85
2022-12-12T21:41:20.416Z,27.92
2022-12-12T21:46:24.336Z,31.27
2022-12-12T21:51:26.108Z,40.95
2022-12-12T21:56:27.937Z,44.30
2022-12-12T22:01:29.830Z,39.50
2022-12-12T22:06:34.032Z,36.92
2022-12-12T22:11:42.248Z,31.42
2022-12-12T22:17:02.116Z,33.78
2022-12-12T22:22:03.878Z,35.05
2022-12-12T22:27:05.572Z,24.73
2022-12-12T22:32:07.267Z,22.58
2022-12-12T22:37:08.875Z,27.38
2022-12-12T22:42:10.560Z,21.45
2022-12-12T22:47:12.460Z,26.65
2022-12-12T22:52:14.651Z,35.15
2022-12-12T22:57:26.069Z,32.25
2022-12-12T23:02:33.883Z,33.55
2022-12-12T23:07:35.644Z,32.60
2022-12-12T23:12:39.978Z,25.15
2022-12-12T23:17:41.689Z,22.10
2022-12-12T23:22:46.378Z,19.52
2022-12-12T23:27:48.308Z,17.20
2022-12-12T23:32:50.952Z,17.50
2022-12-12T23:37:52.595Z,15.25
2022-12-12T23:42:54.300Z,16.08
2022-12-12T23:47:55.924Z,15.82
2022-12-12T23:52:58.107Z,14.95
2022-12-12T23:57:59.781Z,13.93
